Time;durP1;ratioP1;P1;durP2;ratioP2;P2;SDS_P1;SDS_P2;PMS_P1;PMS_P2;Temp;Humidity;BMP_temperature;BMP_pressure;BME280_temperature;BME280_humidity;BME280_pressure;Samples;Min_cycle;Max_cycle;Signal;HPM_P1;HPM_P2
2022/07/29 00:01:15;;;;;;;4.13;1.27;;;;;;;;;;6302189;28;20195;-80
2022/07/29 00:04:20;;;;;;;2.72;1.50;;;;;;;;;;6301681;28;20669;-79
2022/07/29 00:07:22;;;;;;;3.60;1.60;;;;;;;;;;6287159;28;20127;-80
2022/07/29 00:10:24;;;;;;;2.85;1.40;;;;;;;;;;6277726;28;20131;-79
2022/07/29 00:13:25;;;;;;;4.05;1.60;;;;;;;;;;6297719;28;20040;-79
2022/07/29 00:16:33;;;;;;;6.25;1.83;;;;;;;;;;6315393;28;20086;-80
2022/07/29 00:19:35;;;;;;;2.78;1.45;;;;;;;;;;6304213;28;20043;-78
2022/07/29 00:22:38;;;;;;;2.22;1.25;;;;;;;;;;6315312;28;20629;-79
2022/07/29 00:25:39;;;;;;;2.97;1.27;;;;;;;;;;6298162;28;20135;-81
2022/07/29 00:28:41;;;;;;;1.38;1.27;;;;;;;;;;6302757;28;20147;-80
2022/07/29 00:31:43;;;;;;;2.30;1.30;;;;;;;;;;6316891;28;20122;-80
2022/07/29 00:38:04;;;;;;;1.83;1.13;;;;;;;;;;6293345;28;20677;-81
2022/07/29 00:41:06;;;;;;;2.65;1.58;;;;;;;;;;6303465;28;20117;-80
2022/07/29 00:44:08;;;;;;;3.03;1.50;;;;;;;;;;6300577;28;20150;-81
2022/07/29 00:47:11;;;;;;;3.53;1.70;;;;;;;;;;6291378;28;20386;-81
2022/07/29 00:50:13;;;;;;;;;;;;;;;;;;6311480;28;20047;-81
2022/07/29 00:53:15;;;;;;;3.75;1.90;;;;;;;;;;6283279;28;19924;-81
2022/07/29 00:56:17;;;;;;;2.42;1.67;;;;;;;;;;6321422;28;20051;-81
2022/07/29 00:59:18;;;;;;;3.00;1.70;;;;;;;;;;6296626;28;20071;-81
2022/07/29 01:02:20;;;;;;;3.50;2.00;;;;;;;;;;6287639;28;20237;-81
2022/07/29 01:05:24;;;;;;;3.38;1.65;;;;;;;;;;6305667;28;20168;-80
2022/07/29 01:08:47;;;;;;;3.95;1.65;;;;;;;;;;6315911;28;20514;-79
2022/07/29 01:11:49;;;;;;;6.22;1.50;;;;;;;;;;6297659;28;20131;-80
2022/07/29 01:14:53;;;;;;;3.20;1.38;;;;;;;;;;6297831;28;20129;-80
2022/07/29 01:18:22;;;;;;;3.20;1.63;;;;;;;;;;6306274;28;20047;-81
2022/07/29 01:21:39;;;;;;;2.13;0.90;;;;;;;;;;6316322;28;20051;-81
2022/07/29 01:24:50;;;;;;;4.30;1.50;;;;;;;;;;6302365;28;20077;-80
2022/07/29 01:28:09;;;;;;;2.85;1.73;;;;;;;;;;6303632;28;20081;-80
2022/07/29 01:31:20;;;;;;;3.28;1.75;;;;;;;;;;6285504;28;20051;-81
2022/07/29 01:34:51;;;;;;;5.90;2.00;;;;;;;;;;6331485;28;20048;-80
2022/07/29 01:38:21;;;;;;;2.60;1.90;;;;;;;;;;6307178;28;20089;-80
2022/07/29 01:41:25;;;;;;;3.13;1.60;;;;;;;;;;6314638;28;20063;-80
2022/07/29 01:44:45;;;;;;;3.83;1.60;;;;;;;;;;6301280;28;20111;-80
2022/07/29 01:48:07;;;;;;;1.88;1.38;;;;;;;;;;6313390;28;20082;-81
2022/07/29 01:51:27;;;;;;;4.43;1.80;;;;;;;;;;6299038;28;20067;-80
2022/07/29 01:54:42;;;;;;;2.55;1.48;;;;;;;;;;6322847;28;20561;-80
2022/07/29 01:57:48;;;;;;;2.28;1.60;;;;;;;;;;6279318;28;20047;-80
2022/07/29 02:00:55;;;;;;;4.72;1.58;;;;;;;;;;6317753;28;20059;-80
2022/07/29 02:03:58;;;;;;;3.92;1.50;;;;;;;;;;6308026;28;20131;-83
2022/07/29 02:07:01;;;;;;;;;;;;;;;;;;6298234;28;20123;-81
2022/07/29 02:10:05;;;;;;;1.73;1.23;;;;;;;;;;6317329;28;19928;-81
2022/07/29 02:13:09;;;;;;;3.03;1.50;;;;;;;;;;6317660;28;20102;-81
2022/07/29 02:16:12;;;;;;;1.88;1.35;;;;;;;;;;6310041;28;20127;-80
2022/07/29 02:19:14;;;;;;;2.45;1.60;;;;;;;;;;6302667;28;20119;-81
2022/07/29 02:22:18;;;;;;;2.95;1.40;;;;;;;;;;6307400;28;20131;-81
2022/07/29 02:25:22;;;;;;;4.30;2.05;;;;;;;;;;6320897;28;20127;-81
2022/07/29 02:28:27;;;;;;;4.15;1.48;;;;;;;;;;6300217;28;20534;-80
2022/07/29 02:31:34;;;;;;;2.40;2.15;;;;;;;;;;6305450;28;20071;-81
2022/07/29 02:34:38;;;;;;;5.45;1.58;;;;;;;;;;6293962;28;20042;-81
2022/07/29 02:37:42;;;;;;;3.22;1.40;;;;;;;;;;6323961;28;20060;-80
2022/07/29 02:40:44;;;;;;;2.92;1.45;;;;;;;;;;6322946;28;20064;-80
2022/07/29 02:43:50;;;;;;;3.03;1.70;;;;;;;;;;6316886;28;20047;-80
2022/07/29 02:47:13;;;;;;;3.83;1.50;;;;;;;;;;6310963;28;20590;-81
2022/07/29 02:50:14;;;;;;;;;;;;;;;;;;6300451;28;20176;-80
2022/07/29 02:53:23;;;;;;;2.08;1.50;;;;;;;;;;6310584;28;19920;-81
2022/07/29 02:56:27;;;;;;;2.47;1.60;;;;;;;;;;6308365;28;20108;-81
2022/07/29 02:59:32;;;;;;;8.85;2.38;;;;;;;;;;6311673;28;20467;-80
2022/07/29 03:02:37;;;;;;;6.18;2.10;;;;;;;;;;6319152;28;20101;-81
2022/07/29 03:05:39;;;;;;;7.88;2.80;;;;;;;;;;6300584;28;20452;-80
2022/07/29 03:08:42;;;;;;;12.63;2.95;;;;;;;;;;6324129;28;20089;-83
2022/07/29 03:11:44;;;;;;;6.80;1.90;;;;;;;;;;6322171;28;20972;-82
2022/07/29 03:14:59;;;;;;;4.38;1.77;;;;;;;;;;6298366;28;20048;-81
2022/07/29 03:18:01;;;;;;;3.80;1.77;;;;;;;;;;6301657;28;20089;-83
2022/07/29 03:21:03;;;;;;;6.15;1.80;;;;;;;;;;6293879;28;20048;-82
2022/07/29 03:24:05;;;;;;;5.35;1.70;;;;;;;;;;6300102;28;20052;-82
2022/07/29 03:27:11;;;;;;;2.22;1.40;;;;;;;;;;6270773;28;20060;-82
2022/07/29 03:30:14;;;;;;;6.35;2.55;;;;;;;;;;6295026;28;20040;-83
2022/07/29 03:33:22;;;;;;;4.97;2.63;;;;;;;;;;6288647;28;20101;-82
2022/07/29 03:36:24;;;;;;;7.15;2.42;;;;;;;;;;6310265;28;20052;-82
2022/07/29 03:39:31;;;;;;;10.35;2.33;;;;;;;;;;6316228;28;20043;-82
2022/07/29 03:42:35;;;;;;;3.80;1.85;;;;;;;;;;6273036;28;20055;-83
2022/07/29 03:45:38;;;;;;;3.05;1.63;;;;;;;;;;6270266;28;20490;-82
2022/07/29 03:48:46;;;;;;;3.50;1.60;;;;;;;;;;6333432;27;20044;-82
2022/07/29 03:51:48;;;;;;;4.25;1.80;;;;;;;;;;6314361;28;20059;-82
2022/07/29 03:54:50;;;;;;;5.47;1.52;;;;;;;;;;6300033;28;20044;-82
2022/07/29 03:57:52;;;;;;;2.93;1.30;;;;;;;;;;6311582;28;20410;-82
2022/07/29 04:00:55;;;;;;;2.30;1.50;;;;;;;;;;6317999;28;20422;-81
2022/07/29 04:03:57;;;;;;;3.17;1.40;;;;;;;;;;6300660;28;20975;-82
2022/07/29 04:06:58;;;;;;;3.90;1.60;;;;;;;;;;6325318;28;20067;-82
2022/07/29 04:10:00;;;;;;;2.95;1.40;;;;;;;;;;6304920;28;20058;-82
2022/07/29 04:13:02;;;;;;;3.60;1.60;;;;;;;;;;6309693;28;20040;-83
2022/07/29 04:16:04;;;;;;;3.53;1.75;;;;;;;;;;6283725;28;20491;-83
2022/07/29 04:19:06;;;;;;;6.93;2.00;;;;;;;;;;6319984;28;20070;-83
2022/07/29 04:22:07;;;;;;;3.03;1.77;;;;;;;;;;6316978;28;20193;-83
2022/07/29 04:25:09;;;;;;;2.38;2.05;;;;;;;;;;6310686;28;20067;-83
2022/07/29 04:28:10;;;;;;;3.67;1.80;;;;;;;;;;6299525;28;20124;-83
2022/07/29 04:31:13;;;;;;;3.03;1.70;;;;;;;;;;6301834;28;20063;-82
2022/07/29 04:34:14;;;;;;;4.60;1.90;;;;;;;;;;6301508;28;20145;-83
2022/07/29 04:37:17;;;;;;;3.65;1.75;;;;;;;;;;6322562;28;20445;-83
2022/07/29 04:40:18;;;;;;;5.05;2.10;;;;;;;;;;6320782;28;20519;-83
2022/07/29 04:43:20;;;;;;;5.35;2.05;;;;;;;;;;6273756;28;20044;-82
2022/07/29 04:46:23;;;;;;;2.97;1.83;;;;;;;;;;6301795;28;20051;-82
2022/07/29 04:49:25;;;;;;;4.13;1.67;;;;;;;;;;6289711;28;20539;-82
2022/07/29 04:52:27;;;;;;;3.95;2.28;;;;;;;;;;6308065;28;20058;-82
2022/07/29 04:55:29;;;;;;;4.85;2.90;;;;;;;;;;6287447;28;20648;-82
2022/07/29 04:58:31;;;;;;;4.88;2.90;;;;;;;;;;6296096;28;20055;-82
2022/07/29 05:01:33;;;;;;;5.32;2.25;;;;;;;;;;6303967;28;20047;-83
2022/07/29 05:04:34;;;;;;;4.10;2.05;;;;;;;;;;6308115;28;20173;-82
2022/07/29 05:07:36;;;;;;;4.25;2.38;;;;;;;;;;6325777;28;20039;-83
2022/07/29 05:10:38;;;;;;;3.70;2.20;;;;;;;;;;6309312;28;20048;-82
2022/07/29 05:13:39;;;;;;;3.42;2.30;;;;;;;;;;6314645;28;20039;-82
2022/07/29 05:16:49;;;;;;;2.72;2.53;;;;;;;;;;6303930;28;20085;-82
2022/07/29 05:19:51;;;;;;;5.63;2.20;;;;;;;;;;6323641;28;20043;-82
2022/07/29 05:22:52;;;;;;;4.25;1.73;;;;;;;;;;6293943;28;20047;-83
2022/07/29 05:25:54;;;;;;;7.22;2.60;;;;;;;;;;6307300;28;20044;-82
2022/07/29 05:28:56;;;;;;;8.07;2.15;;;;;;;;;;6293086;28;20491;-82
2022/07/29 05:31:58;;;;;;;9.88;2.83;;;;;;;;;;6277298;28;20043;-81
2022/07/29 05:35:00;;;;;;;6.83;2.40;;;;;;;;;;6311143;28;20036;-82
2022/07/29 05:38:02;;;;;;;5.55;2.30;;;;;;;;;;6299993;28;20039;-82
2022/07/29 05:41:05;;;;;;;5.93;2.10;;;;;;;;;;6304894;28;20067;-81
2022/07/29 05:44:07;;;;;;;4.33;1.90;;;;;;;;;;6294301;28;20098;-81
2022/07/29 05:47:08;;;;;;;11.88;3.03;;;;;;;;;;6322483;28;20063;-83
2022/07/29 05:50:10;;;;;;;13.40;3.10;;;;;;;;;;6302841;28;20494;-81
2022/07/29 05:53:12;;;;;;;11.00;2.67;;;;;;;;;;6309581;28;20112;-82
2022/07/29 05:56:20;;;;;;;10.15;3.33;;;;;;;;;;6322557;28;20039;-81
2022/07/29 05:59:22;;;;;;;5.63;2.45;;;;;;;;;;6303996;28;20040;-82
2022/07/29 06:02:30;;;;;;;8.98;2.80;;;;;;;;;;6322349;28;20043;-82
2022/07/29 06:05:32;;;;;;;4.97;2.25;;;;;;;;;;6299629;28;20048;-82
2022/07/29 06:08:36;;;;;;;5.90;2.03;;;;;;;;;;6296208;28;20051;-82
2022/07/29 06:11:37;;;;;;;4.72;1.77;;;;;;;;;;6315905;28;20043;-83
2022/07/29 06:14:39;;;;;;;6.25;2.03;;;;;;;;;;6300901;28;20052;-82
2022/07/29 06:17:41;;;;;;;7.63;1.92;;;;;;;;;;6296933;28;20491;-82
2022/07/29 06:21:00;;;;;;;3.63;1.77;;;;;;;;;;6292928;28;20040;-83
2022/07/29 06:24:02;;;;;;;2.33;1.50;;;;;;;;;;6303183;28;20051;-87
2022/07/29 06:27:04;;;;;;;4.60;1.70;;;;;;;;;;6292748;28;20762;-82
2022/07/29 06:30:07;;;;;;;6.13;1.52;;;;;;;;;;6298510;28;20048;-84
2022/07/29 06:33:08;;;;;;;8.48;1.83;;;;;;;;;;6302393;28;20502;-83
2022/07/29 06:36:10;;;;;;;5.68;1.80;;;;;;;;;;6315182;28;20067;-83
2022/07/29 06:39:12;;;;;;;4.75;1.40;;;;;;;;;;6305736;28;20044;-83
2022/07/29 06:42:14;;;;;;;3.67;1.63;;;;;;;;;;6296287;28;20139;-83
2022/07/29 06:45:16;;;;;;;2.63;1.40;;;;;;;;;;6316125;28;20043;-81
2022/07/29 06:48:18;;;;;;;3.00;1.50;;;;;;;;;;6303816;28;20074;-82
2022/07/29 06:51:20;;;;;;;3.42;1.70;;;;;;;;;;6329405;28;20043;-81
2022/07/29 06:54:24;;;;;;;4.22;1.58;;;;;;;;;;6304861;28;20044;-81
2022/07/29 06:57:26;;;;;;;3.95;1.75;;;;;;;;;;6305860;28;20063;-80
2022/07/29 07:00:27;;;;;;;3.17;1.50;;;;;;;;;;6318851;28;20044;-81
2022/07/29 07:03:30;;;;;;;2.42;1.92;;;;;;;;;;6281715;28;20449;-81
2022/07/29 07:06:32;;;;;;;2.70;1.90;;;;;;;;;;6316244;28;20044;-80
2022/07/29 07:09:33;;;;;;;2.10;1.57;;;;;;;;;;6306083;28;20086;-81
2022/07/29 07:12:41;;;;;;;6.90;2.42;;;;;;;;;;6309076;28;20047;-82
2022/07/29 07:15:44;;;;;;;2.75;1.73;;;;;;;;;;6314342;28;20040;-81
2022/07/29 07:18:46;;;;;;;2.85;1.67;;;;;;;;;;6321434;28;20069;-82
2022/07/29 07:21:47;;;;;;;3.85;1.70;;;;;;;;;;6305449;28;20129;-81
2022/07/29 07:24:49;;;;;;;4.18;1.92;;;;;;;;;;6325087;28;20156;-82
2022/07/29 07:27:51;;;;;;;3.47;1.70;;;;;;;;;;6325629;28;20060;-81
2022/07/29 07:30:53;;;;;;;3.20;1.90;;;;;;;;;;6318728;28;20032;-81
2022/07/29 07:33:54;;;;;;;4.30;1.98;;;;;;;;;;6329486;28;20040;-81
2022/07/29 07:36:56;;;;;;;3.40;1.55;;;;;;;;;;6297339;28;20051;-81
2022/07/29 07:39:58;;;;;;;2.53;1.75;;;;;;;;;;6326612;28;20044;-81
2022/07/29 07:42:59;;;;;;;4.23;2.00;;;;;;;;;;6336594;28;20055;-81
2022/07/29 07:46:01;;;;;;;2.75;2.00;;;;;;;;;;6318299;28;20116;-81
2022/07/29 07:49:03;;;;;;;1.50;1.40;;;;;;;;;;6339868;28;20043;-81
2022/07/29 07:52:05;;;;;;;3.30;1.80;;;;;;;;;;6341516;28;20051;-81
2022/07/29 07:55:07;;;;;;;2.75;1.60;;;;;;;;;;6330578;28;20066;-81
2022/07/29 07:58:09;;;;;;;2.33;1.75;;;;;;;;;;6313372;28;20199;-81
2022/07/29 08:01:11;;;;;;;4.17;2.10;;;;;;;;;;6340832;28;20039;-81
2022/07/29 08:04:13;;;;;;;3.63;1.88;;;;;;;;;;6342359;28;20051;-81
2022/07/29 08:07:15;;;;;;;2.70;2.00;;;;;;;;;;6298933;28;20047;-81
2022/07/29 08:13:39;;;;;;;2.92;1.95;;;;;;;;;;6323862;28;20114;-81
2022/07/29 08:16:42;;;;;;;4.95;2.33;;;;;;;;;;6311958;28;20052;-82
2022/07/29 08:19:43;;;;;;;2.38;1.90;;;;;;;;;;6330156;28;20050;-81
2022/07/29 08:22:46;;;;;;;3.08;1.90;;;;;;;;;;6327429;28;20048;-81
2022/07/29 08:25:48;;;;;;;3.03;1.92;;;;;;;;;;6325909;28;20067;-82
2022/07/29 08:28:51;;;;;;;4.15;1.83;;;;;;;;;;6325288;28;20040;-81
2022/07/29 08:31:52;;;;;;;4.43;1.73;;;;;;;;;;6329165;28;20048;-82
2022/07/29 08:34:54;;;;;;;2.88;2.05;;;;;;;;;;6294094;28;20490;-82
2022/07/29 08:37:56;;;;;;;2.85;2.00;;;;;;;;;;6315891;28;20142;-82
2022/07/29 08:41:00;;;;;;;2.58;2.13;;;;;;;;;;6323329;28;20059;-82
2022/07/29 08:44:05;;;;;;;3.78;1.80;;;;;;;;;;6298650;28;20047;-83
2022/07/29 08:47:07;;;;;;;2.92;1.80;;;;;;;;;;6316526;28;20060;-82
2022/07/29 08:50:10;;;;;;;4.67;1.83;;;;;;;;;;6303996;28;20116;-83
2022/07/29 08:53:16;;;;;;;2.40;1.90;;;;;;;;;;6320316;28;20066;-83
2022/07/29 08:56:19;;;;;;;4.30;2.13;;;;;;;;;;6322353;28;20072;-83
2022/07/29 08:59:22;;;;;;;1.88;1.67;;;;;;;;;;6309234;28;20047;-83
2022/07/29 09:02:28;;;;;;;2.63;1.70;;;;;;;;;;6321234;28;20063;-83
2022/07/29 09:05:31;;;;;;;3.75;2.00;;;;;;;;;;6296480;28;20075;-83
2022/07/29 09:08:38;;;;;;;2.97;1.92;;;;;;;;;;6318843;28;20422;-83
2022/07/29 09:11:41;;;;;;;5.07;1.92;;;;;;;;;;6311073;28;20093;-83
2022/07/29 09:14:43;;;;;;;3.85;1.73;;;;;;;;;;6316311;28;20146;-83
2022/07/29 09:17:49;;;;;;;2.67;1.90;;;;;;;;;;6319407;28;20062;-83
2022/07/29 09:24:13;;;;;;;5.45;2.28;;;;;;;;;;6317469;28;20415;-83
2022/07/29 09:27:25;;;;;;;4.97;1.90;;;;;;;;;;6306381;28;20032;-84
2022/07/29 09:30:27;;;;;;;6.35;2.17;;;;;;;;;;6313986;28;20113;-83
2022/07/29 09:33:40;;;;;;;4.47;2.10;;;;;;;;;;6315365;28;20839;-83
2022/07/29 09:36:48;;;;;;;3.78;1.92;;;;;;;;;;6309399;28;20146;-83
2022/07/29 09:39:49;;;;;;;2.50;1.92;;;;;;;;;;6278561;28;20060;-84
2022/07/29 09:42:53;;;;;;;2.00;1.57;;;;;;;;;;6309625;28;20053;-84
2022/07/29 09:45:55;;;;;;;5.20;2.20;;;;;;;;;;6294091;28;20048;-83
2022/07/29 09:49:08;;;;;;;2.25;1.90;;;;;;;;;;6301564;28;20177;-83
2022/07/29 09:52:11;;;;;;;2.70;2.10;;;;;;;;;;6306615;28;20160;-82
2022/07/29 09:55:13;;;;;;;4.10;1.85;;;;;;;;;;6327551;28;20388;-83
2022/07/29 09:58:22;;;;;;;4.47;2.10;;;;;;;;;;6316101;28;20056;-82
2022/07/29 10:01:28;;;;;;;3.42;2.08;;;;;;;;;;6324403;28;20085;-82
2022/07/29 10:04:40;;;;;;;3.53;2.10;;;;;;;;;;6308603;28;20036;-83
2022/07/29 10:07:53;;;;;;;3.33;2.25;;;;;;;;;;6319530;28;20070;-82
2022/07/29 10:11:17;;;;;;;4.03;1.95;;;;;;;;;;6318069;28;20058;-81
2022/07/29 10:14:19;;;;;;;4.55;2.20;;;;;;;;;;6320787;28;20040;-82
2022/07/29 10:17:21;;;;;;;4.43;2.10;;;;;;;;;;6292320;28;20059;-83
2022/07/29 10:20:24;;;;;;;3.00;2.58;;;;;;;;;;6303124;28;20078;-82
2022/07/29 10:23:28;;;;;;;2.65;2.05;;;;;;;;;;6316989;28;20062;-83
2022/07/29 10:26:47;;;;;;;2.50;2.30;;;;;;;;;;6317341;28;20048;-84
2022/07/29 10:29:49;;;;;;;4.53;2.30;;;;;;;;;;6316636;28;20048;-84
2022/07/29 10:33:08;;;;;;;3.67;2.35;;;;;;;;;;6308381;28;20055;-83
2022/07/29 10:36:31;;;;;;;4.40;2.40;;;;;;;;;;6316299;28;20099;-83
2022/07/29 10:39:42;;;;;;;3.72;2.58;;;;;;;;;;6312621;28;20109;-82
2022/07/29 10:42:52;;;;;;;2.80;2.50;;;;;;;;;;6295035;28;20035;-86
2022/07/29 10:45:59;;;;;;;4.82;2.50;;;;;;;;;;6294544;28;20167;-82
2022/07/29 10:49:09;;;;;;;4.65;2.70;;;;;;;;;;6313622;28;20047;-83
2022/07/29 10:52:12;;;;;;;4.07;2.55;;;;;;;;;;6315878;28;20044;-86
2022/07/29 10:55:39;;;;;;;4.07;2.65;;;;;;;;;;6301835;28;20180;-84
2022/07/29 10:58:44;;;;;;;2.97;2.33;;;;;;;;;;6298272;28;20035;-83
2022/07/29 11:01:54;;;;;;;2.70;2.33;;;;;;;;;;6303037;28;20146;-83
2022/07/29 11:05:18;;;;;;;4.32;2.90;;;;;;;;;;6326671;28;20044;-84
2022/07/29 11:08:23;;;;;;;4.35;2.28;;;;;;;;;;6314145;28;20105;-84
2022/07/29 11:11:26;;;;;;;3.83;2.60;;;;;;;;;;6304385;28;20109;-84
2022/07/29 11:14:52;;;;;;;3.75;2.50;;;;;;;;;;6321192;28;20108;-83
2022/07/29 11:17:53;;;;;;;2.40;2.20;;;;;;;;;;6322173;28;20387;-84
2022/07/29 11:20:59;;;;;;;4.93;2.78;;;;;;;;;;6320948;28;20055;-83
2022/07/29 11:24:14;;;;;;;4.78;2.78;;;;;;;;;;6309424;28;20048;-85
2022/07/29 11:27:39;;;;;;;3.33;2.45;;;;;;;;;;6298868;28;20063;-83
2022/07/29 11:30:54;;;;;;;3.30;2.50;;;;;;;;;;6320114;28;20048;-83
2022/07/29 11:34:31;;;;;;;3.95;2.50;;;;;;;;;;6317342;28;20450;-82
2022/07/29 11:37:35;;;;;;;3.50;2.30;;;;;;;;;;6322513;28;20054;-82
2022/07/29 11:41:29;;;;;;;3.80;2.42;;;;;;;;;;6319919;28;20047;-83
2022/07/29 11:45:05;;;;;;;2.90;2.42;;;;;;;;;;6301669;28;20058;-82
2022/07/29 11:48:27;;;;;;;3.13;2.47;;;;;;;;;;6300867;28;20044;-81
2022/07/29 11:51:36;;;;;;;4.28;2.75;;;;;;;;;;6290531;28;20795;-82
2022/07/29 11:54:50;;;;;;;3.35;2.40;;;;;;;;;;6299308;28;20097;-82
2022/07/29 11:58:01;;;;;;;;;;;;;;;;;;6301217;28;20050;-82
2022/07/29 12:01:06;;;;;;;3.47;2.40;;;;;;;;;;6301766;28;19923;-82
2022/07/29 12:04:07;;;;;;;3.33;2.47;;;;;;;;;;6316377;28;20056;-82
2022/07/29 12:07:11;;;;;;;3.38;2.42;;;;;;;;;;6315761;28;20343;-83
2022/07/29 12:10:16;;;;;;;5.03;2.55;;;;;;;;;;6293007;28;20044;-83
2022/07/29 12:13:38;;;;;;;3.45;2.40;;;;;;;;;;6301395;28;20078;-83
2022/07/29 12:16:41;;;;;;;3.45;2.50;;;;;;;;;;6314309;28;20048;-83
2022/07/29 12:19:44;;;;;;;2.72;2.53;;;;;;;;;;6318515;28;20055;-83
2022/07/29 12:22:48;;;;;;;;;;;;;;;;;;6315405;28;20075;-83
2022/07/29 12:25:50;;;;;;;2.83;2.40;;;;;;;;;;6318616;28;19928;-83
2022/07/29 12:28:54;;;;;;;3.42;2.67;;;;;;;;;;6305360;28;20089;-83
2022/07/29 12:31:57;;;;;;;3.67;2.58;;;;;;;;;;6319376;28;20131;-83
2022/07/29 12:35:04;;;;;;;3.10;2.70;;;;;;;;;;6324819;28;20048;-84
2022/07/29 12:38:09;;;;;;;4.43;2.60;;;;;;;;;;6305870;28;20060;-83
2022/07/29 12:41:12;;;;;;;3.08;2.20;;;;;;;;;;6304244;28;20380;-82
2022/07/29 12:44:14;;;;;;;4.63;2.65;;;;;;;;;;6318097;28;20185;-84
2022/07/29 12:47:17;;;;;;;4.00;2.30;;;;;;;;;;6314968;28;20570;-81
2022/07/29 12:50:19;;;;;;;2.92;2.35;;;;;;;;;;6302904;28;20040;-80
2022/07/29 12:53:27;;;;;;;2.70;2.50;;;;;;;;;;6303902;28;20052;-81
2022/07/29 12:56:29;;;;;;;2.95;2.25;;;;;;;;;;6304928;28;20120;-80
2022/07/29 12:59:44;;;;;;;4.13;2.72;;;;;;;;;;6319975;28;20044;-81
2022/07/29 13:02:53;;;;;;;;;;;;;;;;;;6281957;28;20048;-80
2022/07/29 13:05:55;;;;;;;3.25;2.38;;;;;;;;;;6315030;28;19927;-80
2022/07/29 13:09:09;;;;;;;2.80;2.60;;;;;;;;;;6318950;28;20146;-79
2022/07/29 13:12:13;;;;;;;3.85;2.60;;;;;;;;;;6285684;28;20044;-80
2022/07/29 13:15:15;;;;;;;2.50;2.30;;;;;;;;;;6308243;28;20107;-80
2022/07/29 13:18:33;;;;;;;3.25;2.67;;;;;;;;;;6318017;28;20051;-80
2022/07/29 13:21:36;;;;;;;2.88;2.30;;;;;;;;;;6323757;28;20067;-79
2022/07/29 13:24:56;;;;;;;3.63;2.72;;;;;;;;;;6291851;28;20066;-79
2022/07/29 13:27:59;;;;;;;3.58;2.50;;;;;;;;;;6308314;28;20043;-80
2022/07/29 13:31:08;;;;;;;5.68;2.97;;;;;;;;;;6295447;28;20047;-81
2022/07/29 13:34:10;;;;;;;3.35;2.60;;;;;;;;;;6319630;28;20126;-81
2022/07/29 13:37:12;;;;;;;3.88;2.50;;;;;;;;;;6318064;28;20122;-81
2022/07/29 13:40:14;;;;;;;;;;;;;;;;;;6329758;28;20048;-79
2022/07/29 13:43:15;;;;;;;4.35;2.50;;;;;;;;;;6330227;28;19920;-79
2022/07/29 13:46:17;;;;;;;3.50;2.30;;;;;;;;;;6324599;28;20550;-79
2022/07/29 13:49:19;;;;;;;2.92;2.72;;;;;;;;;;6294083;28;20036;-80
2022/07/29 13:52:21;;;;;;;2.70;2.47;;;;;;;;;;6317538;28;20158;-80
2022/07/29 13:55:23;;;;;;;5.20;2.75;;;;;;;;;;6301880;28;20063;-80
2022/07/29 13:58:25;;;;;;;3.35;2.53;;;;;;;;;;6309194;28;20089;-80
2022/07/29 14:01:27;;;;;;;3.13;2.35;;;;;;;;;;6316393;28;20064;-79
2022/07/29 14:04:29;;;;;;;3.13;2.70;;;;;;;;;;6312453;28;20172;-79
2022/07/29 14:07:31;;;;;;;3.15;2.83;;;;;;;;;;6331309;28;20066;-80
2022/07/29 14:10:33;;;;;;;4.55;2.63;;;;;;;;;;6309472;28;20083;-80
2022/07/29 14:13:34;;;;;;;3.03;2.47;;;;;;;;;;6297871;28;20071;-82
2022/07/29 14:16:36;;;;;;;3.95;2.60;;;;;;;;;;6319956;28;20072;-80
2022/07/29 14:19:44;;;;;;;3.03;2.42;;;;;;;;;;6287545;28;20169;-81
2022/07/29 14:22:45;;;;;;;3.25;2.95;;;;;;;;;;6318676;28;20043;-78
2022/07/29 14:25:47;;;;;;;3.53;2.30;;;;;;;;;;6318311;28;20024;-78
2022/07/29 14:28:50;;;;;;;3.25;2.95;;;;;;;;;;6312510;28;20059;-79
2022/07/29 14:31:51;;;;;;;3.72;2.80;;;;;;;;;;6290434;28;20051;-80
2022/07/29 14:34:53;;;;;;;3.08;2.75;;;;;;;;;;6310876;28;20056;-79
2022/07/29 14:37:55;;;;;;;3.90;2.67;;;;;;;;;;6313987;28;20067;-77
2022/07/29 14:40:56;;;;;;;4.60;2.60;;;;;;;;;;6286834;28;20052;-78
2022/07/29 14:44:00;;;;;;;4.47;2.60;;;;;;;;;;6299648;28;20036;-81
2022/07/29 14:47:02;;;;;;;3.20;2.90;;;;;;;;;;6291718;28;20055;-82
2022/07/29 14:50:09;;;;;;;3.72;2.40;;;;;;;;;;6321200;28;20050;-81
2022/07/29 14:53:12;;;;;;;;;;;;;;;;;;6278617;28;20039;-81
2022/07/29 14:56:14;;;;;;;2.90;2.65;;;;;;;;;;6316249;28;19924;-81
2022/07/29 14:59:36;;;;;;;3.17;2.85;;;;;;;;;;6312791;28;20048;-82
2022/07/29 15:02:37;;;;;;;3.25;2.80;;;;;;;;;;6309496;28;20043;-82
2022/07/29 15:05:59;;;;;;;4.68;2.72;;;;;;;;;;6309925;28;20044;-79
2022/07/29 15:09:01;;;;;;;4.05;2.95;;;;;;;;;;6284938;28;20048;-81
2022/07/29 15:12:02;;;;;;;5.83;2.70;;;;;;;;;;6296933;28;20063;-80
2022/07/29 15:15:04;;;;;;;4.47;2.92;;;;;;;;;;6318209;28;20443;-80
2022/07/29 15:18:06;;;;;;;8.43;3.05;;;;;;;;;;6300070;28;20098;-81
2022/07/29 15:21:08;;;;;;;6.03;3.00;;;;;;;;;;6314674;28;20163;-80
2022/07/29 15:24:10;;;;;;;3.47;2.60;;;;;;;;;;6296749;28;20035;-80
2022/07/29 15:27:13;;;;;;;5.10;2.95;;;;;;;;;;6320165;28;20065;-79
2022/07/29 15:30:16;;;;;;;13.60;4.00;;;;;;;;;;6304568;28;20043;-80
2022/07/29 15:33:34;;;;;;;6.57;3.50;;;;;;;;;;6301321;28;20036;-80
2022/07/29 15:36:36;;;;;;;8.07;3.20;;;;;;;;;;6301084;28;20116;-80
2022/07/29 15:39:54;;;;;;;5.65;3.88;;;;;;;;;;6322193;28;20044;-81
2022/07/29 15:43:05;;;;;;;3.53;3.05;;;;;;;;;;6304967;28;20524;-80
2022/07/29 15:49:31;;;;;;;5.25;3.38;;;;;;;;;;6311659;28;20188;-81
2022/07/29 15:52:49;;;;;;;3.72;3.42;;;;;;;;;;6308177;28;20078;-79
2022/07/29 15:55:51;;;;;;;3.78;3.47;;;;;;;;;;6304260;28;20075;-79
2022/07/29 15:58:53;;;;;;;5.13;3.22;;;;;;;;;;6318513;28;20060;-79
2022/07/29 16:01:54;;;;;;;4.55;3.47;;;;;;;;;;6332904;28;20051;-79
2022/07/29 16:04:56;;;;;;;4.43;3.00;;;;;;;;;;6281867;28;20052;-79
2022/07/29 16:07:59;;;;;;;4.43;3.22;;;;;;;;;;6325192;28;20113;-80
2022/07/29 16:11:01;;;;;;;3.55;3.25;;;;;;;;;;6311157;28;20075;-79
2022/07/29 16:14:03;;;;;;;5.32;3.30;;;;;;;;;;6315619;28;20093;-79
2022/07/29 16:17:05;;;;;;;3.80;3.40;;;;;;;;;;6316655;28;20052;-79
2022/07/29 16:20:07;;;;;;;4.20;3.40;;;;;;;;;;6290195;28;20036;-78
2022/07/29 16:23:10;;;;;;;3.80;3.13;;;;;;;;;;6308797;28;20047;-79
2022/07/29 16:26:12;;;;;;;4.45;3.25;;;;;;;;;;6297997;28;20476;-79
2022/07/29 16:29:14;;;;;;;5.50;3.83;;;;;;;;;;6291576;28;20455;-80
2022/07/29 16:32:15;;;;;;;8.35;4.32;;;;;;;;;;6319998;28;20474;-80
2022/07/29 16:35:23;;;;;;;5.22;4.03;;;;;;;;;;6312839;28;20070;-79
2022/07/29 16:38:41;;;;;;;6.72;4.05;;;;;;;;;;6302187;28;20036;-80
2022/07/29 16:41:48;;;;;;;6.30;4.25;;;;;;;;;;6297792;28;20089;-81
2022/07/29 16:44:50;;;;;;;5.68;3.58;;;;;;;;;;6298594;28;20045;-80
2022/07/29 16:47:53;;;;;;;5.00;3.70;;;;;;;;;;6319872;28;20190;-80
2022/07/29 16:51:00;;;;;;;4.18;3.63;;;;;;;;;;6326180;28;20048;-79
2022/07/29 16:54:02;;;;;;;5.17;3.40;;;;;;;;;;6307107;28;20171;-79
2022/07/29 16:57:04;;;;;;;7.13;3.40;;;;;;;;;;6312408;28;20097;-80
2022/07/29 17:00:06;;;;;;;3.95;3.40;;;;;;;;;;6328566;28;20150;-80
2022/07/29 17:03:08;;;;;;;3.25;2.85;;;;;;;;;;6304043;28;20121;-80
2022/07/29 17:06:10;;;;;;;5.13;3.20;;;;;;;;;;6322116;28;20044;-81
2022/07/29 17:09:14;;;;;;;5.15;3.42;;;;;;;;;;6321633;28;20515;-80
2022/07/29 17:12:16;;;;;;;4.03;3.15;;;;;;;;;;6313846;28;20043;-80
2022/07/29 17:15:18;;;;;;;5.88;3.15;;;;;;;;;;6300551;28;20077;-80
2022/07/29 17:18:20;;;;;;;3.80;2.97;;;;;;;;;;6307372;28;20088;-81
2022/07/29 17:21:22;;;;;;;5.32;3.08;;;;;;;;;;6326025;28;20090;-81
2022/07/29 17:24:24;;;;;;;;;;;;;;;;;;6295049;28;20143;-81
2022/07/29 17:27:25;;;;;;;4.55;2.90;;;;;;;;;;6323215;28;19963;-80
2022/07/29 17:30:28;;;;;;;5.07;3.15;;;;;;;;;;6302898;28;20139;-80
2022/07/29 17:33:30;;;;;;;4.95;3.30;;;;;;;;;;6322741;28;20109;-80
2022/07/29 17:36:31;;;;;;;4.10;2.95;;;;;;;;;;6315722;28;20490;-81
2022/07/29 17:39:34;;;;;;;4.43;3.40;;;;;;;;;;6327816;28;20059;-79
2022/07/29 17:42:36;;;;;;;5.15;3.50;;;;;;;;;;6320364;28;20114;-81
2022/07/29 17:45:37;;;;;;;5.15;4.00;;;;;;;;;;6323007;28;20067;-80
2022/07/29 17:48:51;;;;;;;6.45;3.70;;;;;;;;;;6300338;28;20470;-80
2022/07/29 17:51:53;;;;;;;5.57;3.55;;;;;;;;;;6327531;28;20086;-81
2022/07/29 17:55:01;;;;;;;4.15;3.42;;;;;;;;;;6297563;28;20128;-79
2022/07/29 17:58:03;;;;;;;4.27;3.33;;;;;;;;;;6309150;28;20118;-79
2022/07/29 18:01:04;;;;;;;5.38;3.13;;;;;;;;;;6320028;28;20480;-79
2022/07/29 18:04:07;;;;;;;4.67;3.20;;;;;;;;;;6330368;28;20058;-79
2022/07/29 18:07:10;;;;;;;3.72;2.97;;;;;;;;;;6321806;28;20394;-79
2022/07/29 18:10:12;;;;;;;4.55;3.58;;;;;;;;;;6310980;28;20471;-79
2022/07/29 18:13:15;;;;;;;3.30;3.00;;;;;;;;;;6322717;28;20512;-79
2022/07/29 18:16:17;;;;;;;4.60;3.35;;;;;;;;;;6329334;28;20044;-79
2022/07/29 18:19:19;;;;;;;5.43;3.40;;;;;;;;;;6329332;28;20092;-79
2022/07/29 18:22:20;;;;;;;5.88;3.55;;;;;;;;;;6304153;28;20081;-79
2022/07/29 18:25:22;;;;;;;4.22;3.40;;;;;;;;;;6307260;28;20096;-79
2022/07/29 18:28:24;;;;;;;4.07;3.30;;;;;;;;;;6320210;28;20514;-79
2022/07/29 18:31:26;;;;;;;4.32;3.15;;;;;;;;;;6330396;28;20055;-79
2022/07/29 18:34:28;;;;;;;4.63;3.33;;;;;;;;;;6324655;28;20047;-79
2022/07/29 18:37:30;;;;;;;4.00;3.25;;;;;;;;;;6303738;28;20047;-79
2022/07/29 18:40:51;;;;;;;4.30;3.35;;;;;;;;;;6322800;28;20653;-80
2022/07/29 18:43:53;;;;;;;3.90;3.40;;;;;;;;;;6325041;28;20066;-79
2022/07/29 18:46:55;;;;;;;4.00;3.63;;;;;;;;;;6314412;28;20078;-80